KEKX

Addington Field Airport

Elizabethtown, Kentucky, USA
METAR KEKX 241955Z AUTO 08008KT 10SM OVC005 12/12 A2991 RMK AO2 LTG DSNT W P0002 T01150115
Observed Flight Rules
Feb-24 @ 19:55 UTC (16 minutes ago) Instrument Flight Rules
Wind Visibility Clouds
80° at 8 knots 10 miles
  • Overcast at 500' AGL
Temperatures Readings Precipitation
Current 12°C / 54°F
Dewpoint 12°C / 54°F
Humidity 100%
Altimeter 29.91" Hg
Pressure 1013 hPa
Current Rain 0.02
METAR KEKX 241955Z AUTO 08008KT 10SM OVC005 12/12 A2991 RMK AO2 LTG DSNT W P0002 T01150115
Observed Flight Rules
Feb-24 @ 19:55 UTC
(16 minutes ago)
IFR
Wind Visibility
80° at 8 knots 10 miles
Clouds
  • Overcast at 500' AGL
Temperature Dewpoint
12°C / 54°F 12°C / 54°F
Humidity Altimeter Pressure
100% 29.91" Hg 1013 hPa
Current Rain
0.02